createdAt,value
2017-06-15T00:00:41.366Z,13.9
2017-06-15T00:01:40.580Z,13.9
2017-06-15T00:02:40.299Z,13.9
2017-06-15T00:03:39.397Z,13.9
2017-06-15T00:04:38.619Z,13.9
2017-06-15T00:05:37.837Z,13.8
2017-06-15T00:07:36.444Z,13.8
2017-06-15T00:08:35.543Z,13.8
2017-06-15T00:09:34.667Z,13.8
2017-06-15T00:10:33.884Z,13.8
2017-06-15T00:11:33.485Z,13.8
2017-06-15T00:12:32.699Z,13.8
2017-06-15T00:13:31.924Z,13.8
2017-06-15T00:14:31.148Z,13.8
2017-06-15T00:15:30.366Z,13.8
2017-06-15T00:16:29.467Z,13.7
2017-06-15T00:17:28.694Z,13.7
2017-06-15T00:18:28.424Z,13.7
2017-06-15T00:19:27.644Z,13.7
2017-06-15T00:20:26.858Z,13.7
2017-06-15T00:21:26.083Z,13.6
2017-06-15T00:22:25.191Z,13.6
2017-06-15T00:23:24.176Z,13.7
2017-06-15T00:24:23.905Z,13.6
2017-06-15T00:26:22.019Z,13.6
2017-06-15T00:27:21.510Z,13.6
2017-06-15T00:28:20.610Z,13.6
2017-06-15T00:29:20.217Z,13.5
2017-06-15T00:30:19.443Z,13.5
2017-06-15T00:32:17.564Z,13.5
2017-06-15T00:33:16.791Z,13.5
2017-06-15T00:34:16.012Z,13.5
2017-06-15T00:35:15.304Z,13.5
2017-06-15T00:36:14.403Z,13.5
2017-06-15T00:37:13.775Z,13.5
2017-06-15T00:38:13.377Z,13.5
2017-06-15T00:39:12.359Z,13.5
2017-06-15T00:40:11.962Z,13.5
2017-06-15T00:41:11.189Z,13.5
2017-06-15T00:42:10.967Z,13.5
2017-06-15T00:43:09.631Z,13.5
2017-06-15T00:44:08.923Z,13.5
2017-06-15T00:45:08.142Z,13.4
2017-06-15T00:46:07.945Z,13.4
2017-06-15T00:47:06.667Z,13.4
2017-06-15T00:49:05.275Z,13.4
2017-06-15T00:50:04.500Z,13.4
2017-06-15T00:52:02.667Z,13.4
2017-06-15T00:53:01.890Z,13.4
2017-06-15T00:54:01.118Z,13.3
2017-06-15T00:55:00.725Z,13.3
2017-06-15T00:55:59.958Z,13.3
2017-06-15T00:56:59.181Z,13.3
2017-06-15T00:57:58.162Z,13.3
2017-06-15T00:58:57.381Z,13.3
2017-06-15T00:59:56.605Z,13.3
2017-06-15T01:00:55.714Z,13.3
2017-06-15T01:01:55.319Z,13.2
2017-06-15T01:02:54.538Z,13.2
2017-06-15T01:03:53.758Z,13.2
2017-06-15T01:04:52.859Z,13.2
2017-06-15T01:05:52.082Z,13.2
2017-06-15T01:06:51.878Z,13.2
2017-06-15T01:07:50.603Z,13.2
2017-06-15T01:08:49.829Z,13.2
2017-06-15T01:09:49.439Z,13.2
2017-06-15T01:10:48.733Z,13.2
2017-06-15T01:11:47.957Z,13.2
2017-06-15T01:12:47.181Z,13.2
2017-06-15T01:13:46.293Z,13.2
2017-06-15T01:14:45.512Z,13.2
2017-06-15T01:15:44.732Z,13.1
2017-06-15T01:16:43.954Z,13.1
2017-06-15T01:17:43.178Z,13.1
2017-06-15T01:18:42.287Z,13.1
2017-06-15T01:19:41.387Z,13.1
2017-06-15T01:20:40.758Z,13.2
2017-06-15T01:21:40.135Z,13.1
2017-06-15T01:22:39.361Z,13.1
2017-06-15T01:23:38.582Z,13.1
2017-06-15T01:24:37.799Z,13.1
2017-06-15T01:25:37.020Z,13.1
2017-06-15T01:26:36.198Z,13.1
2017-06-15T01:27:35.417Z,13.1
2017-06-15T01:28:34.638Z,13.1
2017-06-15T01:29:33.866Z,13.1
2017-06-15T01:30:33.469Z,13
2017-06-15T01:31:32.693Z,13.1
2017-06-15T01:32:31.690Z,13.1
2017-06-15T01:33:31.295Z,13
2017-06-15T01:34:30.581Z,13
2017-06-15T01:35:29.777Z,13
2017-06-15T01:36:29.010Z,13
2017-06-15T01:37:28.250Z,13
2017-06-15T01:38:27.354Z,13
2017-06-15T01:39:26.650Z,13
2017-06-15T01:40:25.864Z,13
2017-06-15T01:41:24.966Z,13
2017-06-15T01:42:24.181Z,13
2017-06-15T01:43:23.403Z,12.9
2017-06-15T01:44:23.203Z,12.9
2017-06-15T01:45:21.922Z,12.9
2017-06-15T01:46:21.141Z,12.9
2017-06-15T01:47:20.363Z,12.9
2017-06-15T01:48:19.469Z,12.9
2017-06-15T01:49:18.697Z,12.9
2017-06-15T01:50:17.921Z,12.9
2017-06-15T01:51:17.526Z,12.9
2017-06-15T01:52:16.751Z,12.9
2017-06-15T01:52:47.222Z,12.9
2017-06-15T01:54:15.126Z,12.9
2017-06-15T01:55:14.106Z,12.9
2017-06-15T01:56:13.832Z,12.9
2017-06-15T01:57:12.914Z,12.9
2017-06-15T01:58:12.145Z,12.9
2017-06-15T01:59:11.258Z,12.9
2017-06-15T02:00:10.490Z,12.8
2017-06-15T02:02:09.168Z,12.8
2017-06-15T02:03:08.386Z,12.8
2017-06-15T02:04:07.621Z,12.8
2017-06-15T02:05:06.842Z,12.8
2017-06-15T02:06:05.948Z,12.8
2017-06-15T02:07:05.174Z,12.8
2017-06-15T02:08:04.469Z,12.8
2017-06-15T02:09:03.692Z,12.8
2017-06-15T02:10:03.181Z,12.8
2017-06-15T02:11:02.404Z,12.7
2017-06-15T02:12:01.211Z,12.8
2017-06-15T02:13:00.446Z,12.7
2017-06-15T02:14:00.247Z,12.7
2017-06-15T02:14:30.837Z,12.7
2017-06-15T02:15:00.866Z,12.8
2017-06-15T02:15:58.577Z,12.8
2017-06-15T02:16:57.793Z,12.8
2017-06-15T02:17:56.768Z,12.8
2017-06-15T02:18:56.251Z,12.7
2017-06-15T02:19:55.471Z,12.7
2017-06-15T02:20:54.766Z,12.7
2017-06-15T02:21:53.989Z,12.7
2017-06-15T02:22:53.209Z,12.7
2017-06-15T02:23:52.429Z,12.7
2017-06-15T02:24:51.647Z,12.7
2017-06-15T02:26:49.751Z,12.7
2017-06-15T02:27:48.971Z,12.7
2017-06-15T02:28:48.268Z,12.7
2017-06-15T02:29:48.062Z,12.7
2017-06-15T02:30:47.091Z,12.7
2017-06-15T02:31:46.317Z,12.7
2017-06-15T02:32:45.489Z,12.6
2017-06-15T02:34:43.590Z,12.6
2017-06-15T02:35:42.813Z,12.6
2017-06-15T02:36:42.035Z,12.6
2017-06-15T02:37:41.273Z,12.6
2017-06-15T02:38:40.495Z,12.6
2017-06-15T02:39:39.792Z,12.6
2017-06-15T02:40:38.890Z,12.6
2017-06-15T02:41:38.384Z,12.6
2017-06-15T02:42:37.610Z,12.6
2017-06-15T02:43:36.986Z,12.6
2017-06-15T02:44:36.668Z,12.6
2017-06-15T02:45:35.501Z,12.6
2017-06-15T02:46:34.616Z,12.5
2017-06-15T02:47:33.848Z,12.5
2017-06-15T02:48:33.152Z,12.5
2017-06-15T02:49:32.384Z,12.5
2017-06-15T02:50:31.615Z,12.6
2017-06-15T02:51:30.849Z,12.5
2017-06-15T02:52:30.076Z,12.5
2017-06-15T02:53:29.068Z,12.6
2017-06-15T02:54:28.297Z,12.5
2017-06-15T02:55:27.532Z,12.5
2017-06-15T02:56:26.835Z,12.5
2017-06-15T02:58:25.460Z,12.5
2017-06-15T02:59:24.699Z,12.5
2017-06-15T03:00:23.930Z,12.5
2017-06-15T03:01:23.240Z,12.5
2017-06-15T03:02:22.464Z,12.5
2017-06-15T03:03:21.569Z,12.5
2017-06-15T03:04:20.807Z,12.5
2017-06-15T03:05:20.159Z,12.5
2017-06-15T03:06:18.964Z,12.5
2017-06-15T03:07:18.196Z,12.4
2017-06-15T03:08:17.427Z,12.4
2017-06-15T03:09:16.652Z,12.4
2017-06-15T03:10:15.892Z,12.4
2017-06-15T03:11:15.118Z,12.4
2017-06-15T03:12:14.740Z,12.4
2017-06-15T03:13:13.969Z,12.4
2017-06-15T03:14:13.087Z,12.4
2017-06-15T03:15:12.195Z,12.4
2017-06-15T03:16:11.432Z,12.4
2017-06-15T03:17:10.668Z,12.4
2017-06-15T03:18:09.893Z,12.4
2017-06-15T03:19:08.885Z,12.4
2017-06-15T03:20:08.495Z,12.4
2017-06-15T03:21:07.719Z,12.4
2017-06-15T03:22:06.831Z,12.4
2017-06-15T03:23:06.061Z,12.4
2017-06-15T03:24:05.179Z,12.4
2017-06-15T03:25:04.415Z,12.4
2017-06-15T03:26:03.652Z,12.4
2017-06-15T03:27:02.879Z,12.4
2017-06-15T03:29:01.262Z,12.4
2017-06-15T03:30:00.492Z,12.4
2017-06-15T03:30:59.720Z,12.4
2017-06-15T03:31:58.831Z,12.3
2017-06-15T03:32:58.053Z,12.3
2017-06-15T03:33:57.290Z,12.3
2017-06-15T03:34:56.520Z,12.4
2017-06-15T03:35:55.754Z,12.3
2017-06-15T03:36:54.895Z,12.3
2017-06-15T03:37:54.632Z,12.3
2017-06-15T03:38:53.744Z,12.3
2017-06-15T03:39:52.855Z,12.3
2017-06-15T03:40:52.079Z,12.3
2017-06-15T03:41:51.386Z,12.3
2017-06-15T03:42:50.615Z,12.4
2017-06-15T03:43:49.848Z,12.3
2017-06-15T03:44:49.079Z,12.3
2017-06-15T03:45:48.314Z,12.4
2017-06-15T03:46:47.547Z,12.4
2017-06-15T03:47:46.656Z,12.3
2017-06-15T03:48:45.838Z,12.4
2017-06-15T03:49:45.070Z,12.4
2017-06-15T03:50:44.068Z,12.4
2017-06-15T03:52:42.566Z,12.4
2017-06-15T03:53:41.792Z,12.4
2017-06-15T03:54:41.024Z,12.4
2017-06-15T03:55:40.252Z,12.4
2017-06-15T03:56:39.437Z,12.4
2017-06-15T03:57:38.668Z,12.4
2017-06-15T03:58:37.903Z,12.4
2017-06-15T03:59:37.134Z,12.4
2017-06-15T04:00:36.366Z,12.4
2017-06-15T04:01:35.478Z,12.4
2017-06-15T04:02:34.987Z,12.4
2017-06-15T04:03:34.371Z,12.4
2017-06-15T04:04:33.605Z,12.4
2017-06-15T04:05:32.719Z,12.4
2017-06-15T04:06:31.947Z,12.4
2017-06-15T04:07:31.180Z,12.5
2017-06-15T04:08:30.407Z,12.5
2017-06-15T04:09:29.638Z,12.5
2017-06-15T04:10:28.948Z,12.5
2017-06-15T04:11:28.072Z,12.5
2017-06-15T04:12:27.295Z,12.5
2017-06-15T04:13:26.520Z,12.5
2017-06-15T04:14:25.746Z,12.5
2017-06-15T04:15:25.548Z,12.5
2017-06-15T04:16:24.198Z,12.5
2017-06-15T04:17:23.495Z,12.5
2017-06-15T04:18:22.727Z,12.5
2017-06-15T04:19:21.960Z,12.5
2017-06-15T04:20:21.767Z,12.5
2017-06-15T04:21:20.492Z,12.5
2017-06-15T04:23:18.602Z,12.6
2017-06-15T04:24:17.735Z,12.6
2017-06-15T04:25:16.967Z,12.6
2017-06-15T04:26:16.074Z,12.6
2017-06-15T04:27:15.809Z,12.6
2017-06-15T04:28:15.042Z,12.6
2017-06-15T04:29:14.154Z,12.6
2017-06-15T04:30:13.386Z,12.6
2017-06-15T04:32:11.509Z,12.6
2017-06-15T04:33:10.737Z,12.6
2017-06-15T04:34:09.967Z,12.6
2017-06-15T04:35:09.208Z,12.7
2017-06-15T04:36:08.325Z,12.6
2017-06-15T04:37:07.824Z,12.7
2017-06-15T04:38:06.936Z,12.7
2017-06-15T04:39:06.160Z,12.7
2017-06-15T04:40:05.281Z,12.7
2017-06-15T04:41:05.012Z,12.8
2017-06-15T04:42:03.743Z,12.8
2017-06-15T04:43:02.979Z,12.8
2017-06-15T04:44:02.211Z,12.8
2017-06-15T04:45:01.448Z,12.8
2017-06-15T04:46:01.061Z,12.8
2017-06-15T04:47:00.285Z,12.9
2017-06-15T04:47:59.513Z,12.9
2017-06-15T04:48:58.742Z,13
2017-06-15T04:49:57.971Z,13
2017-06-15T04:50:28.518Z,13
2017-06-15T04:50:58.942Z,13
2017-06-15T04:51:56.159Z,13
2017-06-15T04:52:55.394Z,13.1
2017-06-15T04:54:54.658Z,13.1
2017-06-15T04:56:52.268Z,13.2
2017-06-15T04:57:51.498Z,13.2
2017-06-15T04:58:50.606Z,13.2
2017-06-15T05:00:49.225Z,13.3
2017-06-15T05:01:48.457Z,13.3
2017-06-15T05:02:47.568Z,13.4
2017-06-15T05:03:47.066Z,13.4
2017-06-15T05:04:46.300Z,13.4
2017-06-15T05:05:45.535Z,13.5
2017-06-15T05:06:44.765Z,13.5
2017-06-15T05:07:44.001Z,13.5
2017-06-15T05:08:43.804Z,13.5
2017-06-15T05:09:42.534Z,13.5
2017-06-15T05:10:41.768Z,13.6
2017-06-15T05:11:40.886Z,13.6
2017-06-15T05:12:40.073Z,13.7
2017-06-15T05:13:39.303Z,13.7
2017-06-15T05:14:38.538Z,13.7
2017-06-15T05:15:37.776Z,13.8
2017-06-15T05:16:37.033Z,13.8
2017-06-15T05:17:36.267Z,13.8
2017-06-15T05:18:35.500Z,13.8
2017-06-15T05:19:34.726Z,13.9
2017-06-15T05:20:33.964Z,14
2017-06-15T05:21:33.190Z,13.9
2017-06-15T05:22:32.418Z,14
2017-06-15T05:23:31.649Z,14
2017-06-15T05:25:30.264Z,14.1
2017-06-15T05:26:29.531Z,14.1
2017-06-15T05:27:28.759Z,14.2
2017-06-15T05:28:27.988Z,14.2
2017-06-15T05:29:27.217Z,14.2
2017-06-15T05:31:25.851Z,14.3
2017-06-15T05:32:24.623Z,14.3
2017-06-15T05:33:23.862Z,14.3
2017-06-15T05:34:23.276Z,14.3
2017-06-15T05:35:22.591Z,14.4
2017-06-15T05:36:21.824Z,14.4
2017-06-15T05:37:21.055Z,14.4
2017-06-15T05:38:20.286Z,14.5
2017-06-15T05:39:19.514Z,14.5
2017-06-15T05:40:18.630Z,14.5
2017-06-15T05:41:17.865Z,14.6
2017-06-15T05:43:16.137Z,14.6
2017-06-15T05:44:15.633Z,14.7
2017-06-15T05:45:15.014Z,14.7
2017-06-15T05:46:14.242Z,14.8
2017-06-15T05:47:13.472Z,14.8
2017-06-15T05:49:12.163Z,14.9
2017-06-15T05:50:11.397Z,14.9
2017-06-15T05:51:10.514Z,15
2017-06-15T05:52:09.747Z,15
2017-06-15T05:53:08.980Z,15
2017-06-15T05:54:08.211Z,15.2
2017-06-15T05:55:07.442Z,15.2
2017-06-15T05:56:06.559Z,15.2
2017-06-15T05:57:06.052Z,15.3
2017-06-15T05:58:05.286Z,15.3
2017-06-15T05:59:04.784Z,15.4
2017-06-15T06:00:04.048Z,15.4
2017-06-15T06:01:03.277Z,15.4
2017-06-15T06:03:01.400Z,15.5
2017-06-15T06:04:00.625Z,15.5
2017-06-15T06:05:00.235Z,15.6
2017-06-15T06:05:59.470Z,15.6
2017-06-15T06:06:58.701Z,15.6
2017-06-15T06:07:57.932Z,15.7
2017-06-15T06:08:57.513Z,15.7
2017-06-15T06:10:55.635Z,15.8
2017-06-15T06:11:54.862Z,15.9
2017-06-15T06:12:54.665Z,15.9
2017-06-15T06:13:53.278Z,15.9
2017-06-15T06:14:52.520Z,16
2017-06-15T06:15:51.638Z,16
2017-06-15T06:16:51.146Z,16
2017-06-15T06:17:50.377Z,16.1
2017-06-15T06:18:49.610Z,16.1
2017-06-15T06:19:49.227Z,16.1
2017-06-15T06:21:47.847Z,16.2
2017-06-15T06:22:46.649Z,16.3
2017-06-15T06:23:46.393Z,16.3
2017-06-15T06:25:44.514Z,16.4
2017-06-15T06:26:43.625Z,16.4
2017-06-15T06:27:43.353Z,16.4
2017-06-15T06:28:42.338Z,16.4
2017-06-15T06:29:41.567Z,16.5
2017-06-15T06:30:41.061Z,16.5
2017-06-15T06:31:40.293Z,16.5
2017-06-15T06:32:39.522Z,16.5
2017-06-15T06:33:38.756Z,16.6
2017-06-15T06:34:37.995Z,16.6
2017-06-15T06:35:37.224Z,16.6
2017-06-15T06:37:35.876Z,16.7
2017-06-15T06:39:34.384Z,16.8
2017-06-15T06:40:33.612Z,16.9
2017-06-15T06:41:33.361Z,16.9
2017-06-15T06:42:32.588Z,16.9
2017-06-15T06:43:31.694Z,17
2017-06-15T06:44:30.811Z,17.1
2017-06-15T06:45:29.925Z,17.1
2017-06-15T06:46:29.418Z,17.1
2017-06-15T06:47:28.927Z,17.2
2017-06-15T06:48:28.181Z,17.2
2017-06-15T06:49:27.293Z,17.3
2017-06-15T06:50:26.539Z,17.3
2017-06-15T06:51:25.780Z,17.3
2017-06-15T06:52:25.521Z,17.4
2017-06-15T06:53:24.767Z,17.4
2017-06-15T06:54:24.007Z,17.4
2017-06-15T06:55:23.243Z,17.4
2017-06-15T06:56:22.475Z,17.5
2017-06-15T06:57:21.709Z,17.5
2017-06-15T06:58:20.935Z,17.6
2017-06-15T06:59:20.166Z,17.6
2017-06-15T07:00:19.393Z,17.6
2017-06-15T07:01:19.122Z,17.7
2017-06-15T07:02:18.348Z,17.8
2017-06-15T07:03:17.626Z,17.8
2017-06-15T07:04:17.433Z,17.8
2017-06-15T07:06:15.442Z,17.8
2017-06-15T07:07:14.549Z,17.9
2017-06-15T07:08:13.770Z,18
2017-06-15T07:09:13.390Z,18
2017-06-15T07:10:12.504Z,18
2017-06-15T07:11:11.742Z,18
2017-06-15T07:12:10.969Z,18
2017-06-15T07:13:10.703Z,18
2017-06-15T07:14:09.933Z,18.1
2017-06-15T07:15:08.933Z,18.1
2017-06-15T07:16:08.673Z,18.1
2017-06-15T07:17:07.898Z,18.1
2017-06-15T07:18:07.007Z,18.1
2017-06-15T07:19:05.889Z,18.2
2017-06-15T07:20:06.196Z,18.2
2017-06-15T07:21:04.807Z,18.2
2017-06-15T07:22:04.120Z,18.3
2017-06-15T07:23:03.365Z,18.3
2017-06-15T07:24:02.988Z,18.4
2017-06-15T07:25:01.964Z,18.5
2017-06-15T07:26:01.699Z,18.5
2017-06-15T07:27:00.939Z,18.5
2017-06-15T07:28:00.743Z,18.6
2017-06-15T07:28:59.472Z,18.6
2017-06-15T07:29:58.698Z,18.7
2017-06-15T07:30:57.718Z,18.7
2017-06-15T07:31:57.450Z,18.7
2017-06-15T07:32:56.560Z,18.7
2017-06-15T07:33:56.255Z,18.8
2017-06-15T07:35:54.871Z,18.8
2017-06-15T07:36:54.101Z,18.9
2017-06-15T07:37:53.336Z,18.9
2017-06-15T07:38:52.453Z,19
2017-06-15T07:39:52.087Z,19
2017-06-15T07:40:51.316Z,19
2017-06-15T07:41:50.554Z,19
2017-06-15T07:42:49.787Z,19
2017-06-15T07:43:49.022Z,19.1
2017-06-15T07:44:48.756Z,19.1
2017-06-15T07:45:47.868Z,19.1
2017-06-15T07:46:47.094Z,19.1
2017-06-15T07:47:46.324Z,19.2
2017-06-15T07:48:45.939Z,19.2
2017-06-15T07:49:45.174Z,19.3
2017-06-15T07:50:44.787Z,19.3
2017-06-15T07:51:44.015Z,19.3
2017-06-15T07:52:43.250Z,19.4
2017-06-15T07:53:42.362Z,19.4
2017-06-15T07:54:42.100Z,19.4
2017-06-15T07:55:41.341Z,19.4
2017-06-15T07:56:40.572Z,19.4
2017-06-15T07:57:11.108Z,19.4
2017-06-15T07:57:41.542Z,19.5
2017-06-15T07:58:11.869Z,19.5
2017-06-15T07:59:38.781Z,19.5
2017-06-15T08:00:38.010Z,19.5
2017-06-15T08:01:37.124Z,19.6
2017-06-15T08:02:36.351Z,19.6
2017-06-15T08:03:36.085Z,19.7
2017-06-15T08:04:35.322Z,19.8
2017-06-15T08:05:34.604Z,19.8
2017-06-15T08:06:33.909Z,19.8
2017-06-15T08:07:33.133Z,19.9
2017-06-15T08:08:32.366Z,19.8
2017-06-15T08:09:31.986Z,19.9
2017-06-15T08:10:31.216Z,19.9
2017-06-15T08:11:30.416Z,19.9
2017-06-15T08:12:30.039Z,19.9
2017-06-15T08:13:29.155Z,19.9
2017-06-15T08:14:28.766Z,19.9
2017-06-15T08:15:27.881Z,19.9
2017-06-15T08:16:27.111Z,19.9
2017-06-15T08:17:26.847Z,19.9
2017-06-15T08:18:26.075Z,20
2017-06-15T08:19:25.880Z,20
2017-06-15T08:20:24.553Z,20.1
2017-06-15T08:21:24.286Z,20.1
2017-06-15T08:22:23.520Z,20.2
2017-06-15T08:23:22.752Z,20.2
2017-06-15T08:24:22.058Z,20.2
2017-06-15T08:25:21.374Z,20.3
2017-06-15T08:26:20.989Z,20.3
2017-06-15T08:27:20.109Z,20.3
2017-06-15T08:28:19.614Z,20.3
2017-06-15T08:30:18.124Z,20.4
2017-06-15T08:31:17.394Z,20.4
2017-06-15T08:32:17.137Z,20.4
2017-06-15T08:33:16.389Z,20.5
2017-06-15T08:34:15.621Z,20.5
2017-06-15T08:35:15.236Z,20.5
2017-06-15T08:36:14.465Z,20.5
2017-06-15T08:37:13.957Z,20.6
2017-06-15T08:38:13.195Z,20.6
2017-06-15T08:38:43.734Z,20.6
2017-06-15T08:40:11.534Z,20.7
2017-06-15T08:41:11.268Z,20.8
2017-06-15T08:42:10.397Z,20.8
2017-06-15T08:43:10.008Z,20.9
2017-06-15T08:44:09.250Z,20.9
2017-06-15T08:45:08.755Z,21.1
2017-06-15T08:46:08.251Z,21.1
2017-06-15T08:47:07.487Z,21.1
2017-06-15T08:48:06.602Z,21.2
2017-06-15T08:49:06.334Z,21.2
2017-06-15T08:50:05.448Z,21.2
2017-06-15T08:51:04.947Z,21.2
2017-06-15T08:52:04.183Z,21.2
2017-06-15T08:53:03.413Z,21.2
2017-06-15T08:54:03.164Z,21.2
2017-06-15T08:55:02.279Z,21.2
2017-06-15T08:56:01.510Z,21.2
2017-06-15T08:57:01.129Z,21.3
2017-06-15T08:58:00.357Z,21.4
2017-06-15T08:58:59.587Z,21.4
2017-06-15T08:59:59.329Z,21.5
2017-06-15T09:00:58.568Z,21.5
2017-06-15T09:01:57.564Z,21.6
2017-06-15T09:02:57.488Z,21.7
2017-06-15T09:03:56.712Z,21.8
2017-06-15T09:04:56.018Z,21.8
2017-06-15T09:05:55.838Z,21.9
2017-06-15T09:06:55.069Z,21.9
2017-06-15T09:07:54.297Z,21.9
2017-06-15T09:08:53.536Z,22
2017-06-15T09:09:52.773Z,22
2017-06-15T09:10:52.505Z,22
2017-06-15T09:11:51.731Z,22
2017-06-15T09:12:51.112Z,22.1
2017-06-15T09:13:50.628Z,22.1
2017-06-15T09:14:49.933Z,22.1
2017-06-15T09:15:49.549Z,22.1
2017-06-15T09:16:48.784Z,22.1
2017-06-15T09:17:48.013Z,22.2
2017-06-15T09:18:47.630Z,22.2
2017-06-15T09:19:46.861Z,22.2
2017-06-15T09:20:46.092Z,22.2
2017-06-15T09:21:45.827Z,22.2
2017-06-15T09:22:45.129Z,22.2
2017-06-15T09:23:44.243Z,22.3
2017-06-15T09:24:43.981Z,22.3
2017-06-15T09:25:43.210Z,22.4
2017-06-15T09:26:42.322Z,22.4
2017-06-15T09:27:41.937Z,22.4
2017-06-15T09:28:41.674Z,22.5
2017-06-15T09:29:40.910Z,22.6
2017-06-15T09:30:40.025Z,22.6
2017-06-15T09:31:39.641Z,22.7
2017-06-15T09:32:39.450Z,22.9
2017-06-15T09:33:38.179Z,22.9
2017-06-15T09:34:37.919Z,22.9
2017-06-15T09:35:37.725Z,22.9
2017-06-15T09:36:36.457Z,22.8
2017-06-15T09:37:36.195Z,22.8
2017-06-15T09:38:35.433Z,22.8
2017-06-15T09:40:34.054Z,22.8
2017-06-15T09:41:33.798Z,22.8
2017-06-15T09:42:33.035Z,22.8
2017-06-15T09:43:32.661Z,22.8
2017-06-15T09:44:31.892Z,22.8
2017-06-15T09:45:31.008Z,22.8
2017-06-15T09:46:30.642Z,22.8
2017-06-15T09:47:01.070Z,22.8
2017-06-15T09:47:31.621Z,22.8
2017-06-15T09:48:02.169Z,22.8
2017-06-15T09:49:29.085Z,22.9
2017-06-15T09:50:28.198Z,22.9
2017-06-15T09:51:27.942Z,23
2017-06-15T09:52:27.172Z,23
2017-06-15T09:53:26.420Z,23.1
2017-06-15T09:54:26.156Z,23.1
2017-06-15T09:55:25.390Z,23.2
2017-06-15T09:56:24.694Z,23.3
2017-06-15T09:57:24.429Z,23.3
2017-06-15T09:58:23.544Z,23.3
2017-06-15T09:59:23.165Z,23.3
2017-06-15T10:00:22.282Z,23.4
2017-06-15T10:01:21.898Z,23.4
2017-06-15T10:02:21.129Z,23.4
2017-06-15T10:03:20.870Z,23.5
2017-06-15T10:04:20.103Z,23.6
2017-06-15T10:05:19.841Z,23.5
2017-06-15T10:06:18.963Z,23.5
2017-06-15T10:07:18.585Z,23.5
2017-06-15T10:08:17.938Z,23.6
2017-06-15T10:09:17.175Z,23.7
2017-06-15T10:11:16.295Z,23.9
2017-06-15T10:12:15.529Z,23.8
2017-06-15T10:13:15.137Z,23.8
2017-06-15T10:14:14.254Z,23.8
2017-06-15T10:15:13.796Z,23.8
2017-06-15T10:16:13.543Z,23.8
2017-06-15T10:16:43.850Z,23.8
2017-06-15T10:17:14.404Z,23.8
2017-06-15T10:17:44.823Z,23.8
2017-06-15T10:18:15.364Z,23.8
2017-06-15T10:18:45.897Z,23.8
2017-06-15T10:20:11.296Z,23.8
2017-06-15T10:21:10.525Z,23.8
2017-06-15T10:22:09.755Z,23.7
2017-06-15T10:23:09.375Z,23.8
2017-06-15T10:24:08.996Z,23.7
2017-06-15T10:25:08.114Z,23.7
2017-06-15T10:26:07.855Z,23.8
2017-06-15T10:27:07.087Z,23.9
2017-06-15T10:28:06.708Z,23.9
2017-06-15T10:29:05.972Z,24.1
2017-06-15T10:30:05.541Z,24.1
2017-06-15T10:31:05.043Z,24.1
2017-06-15T10:32:04.271Z,24.2
2017-06-15T10:33:03.889Z,24.2
2017-06-15T10:34:03.127Z,24.2
2017-06-15T10:35:02.861Z,24.3
2017-06-15T10:36:02.481Z,24.3
2017-06-15T10:37:01.801Z,24.3
2017-06-15T10:38:01.035Z,24.3
2017-06-15T10:39:00.784Z,24.3
2017-06-15T10:40:00.014Z,24.5
2017-06-15T10:40:59.749Z,24.6
2017-06-15T10:41:59.702Z,24.7
2017-06-15T10:42:58.191Z,24.7
2017-06-15T10:43:57.923Z,24.7
2017-06-15T10:44:57.158Z,24.7
2017-06-15T10:45:56.894Z,24.6
2017-06-15T10:46:56.125Z,24.6
2017-06-15T10:47:55.862Z,24.6
2017-06-15T10:48:55.090Z,24.7
2017-06-15T10:49:54.594Z,24.7
2017-06-15T10:51:53.712Z,24.8
2017-06-15T10:52:53.212Z,24.8
2017-06-15T10:53:52.394Z,24.8
2017-06-15T10:55:51.519Z,24.8
2017-06-15T10:56:51.133Z,24.9
2017-06-15T10:58:50.341Z,25
2017-06-15T10:59:49.458Z,25.2
2017-06-15T11:00:48.695Z,25.5
2017-06-15T11:01:48.323Z,25.5
2017-06-15T11:02:47.938Z,25.6
2017-06-15T11:03:47.168Z,25.6
2017-06-15T11:04:46.898Z,25.6
2017-06-15T11:05:46.517Z,25.6
2017-06-15T11:06:45.755Z,25.5
2017-06-15T11:07:45.489Z,25.7
2017-06-15T11:08:44.729Z,25.7
2017-06-15T11:09:44.347Z,25.7
2017-06-15T11:10:43.972Z,25.8
2017-06-15T11:11:43.288Z,25.7
2017-06-15T11:12:42.518Z,25.8
2017-06-15T11:13:42.252Z,25.9
2017-06-15T11:14:41.982Z,26.1
2017-06-15T11:15:41.207Z,26.1
2017-06-15T11:16:40.942Z,26.1
2017-06-15T11:17:40.178Z,26.1
2017-06-15T11:18:39.913Z,26.1
2017-06-15T11:20:38.533Z,26.2
2017-06-15T11:21:38.296Z,26.2
2017-06-15T11:22:37.602Z,26.3
2017-06-15T11:23:37.366Z,26.5
2017-06-15T11:24:36.607Z,26.5
2017-06-15T11:25:36.350Z,26.5
2017-06-15T11:26:35.460Z,26.3
2017-06-15T11:27:35.078Z,26.5
2017-06-15T11:29:34.202Z,26.6
2017-06-15T11:30:33.932Z,26.7
2017-06-15T11:31:33.163Z,26.7
2017-06-15T11:32:32.898Z,26.8
2017-06-15T11:34:31.906Z,27
2017-06-15T11:35:31.522Z,27
2017-06-15T11:36:30.752Z,27.2
2017-06-15T11:37:30.376Z,27.2
2017-06-15T11:38:29.994Z,27.3
2017-06-15T11:39:29.728Z,27.3
2017-06-15T11:40:28.962Z,27.3
2017-06-15T11:41:29.293Z,27.4
2017-06-15T11:42:28.023Z,27.6
2017-06-15T11:43:27.660Z,27.6
2017-06-15T11:44:27.274Z,27.7
2017-06-15T11:45:26.596Z,27.8
2017-06-15T11:46:26.331Z,27.7
2017-06-15T11:48:25.222Z,27.7
2017-06-15T11:49:24.959Z,27.8
2017-06-15T11:50:24.193Z,27.7
2017-06-15T11:51:23.810Z,27.8
2017-06-15T11:52:23.545Z,27.7
2017-06-15T11:53:22.766Z,27.9
2017-06-15T11:54:22.507Z,28
2017-06-15T11:55:22.124Z,28
2017-06-15T11:56:21.354Z,28
2017-06-15T11:57:21.092Z,28
2017-06-15T11:58:20.704Z,28.3
2017-06-15T11:59:20.436Z,28.3
2017-06-15T12:00:19.666Z,28.1
2017-06-15T12:01:19.405Z,28.2
2017-06-15T12:02:18.636Z,28.3
2017-06-15T12:04:18.341Z,28.2
2017-06-15T12:05:17.574Z,28.2
2017-06-15T12:06:17.320Z,28.1
2017-06-15T12:07:16.550Z,28.4
2017-06-15T12:08:16.286Z,28.1
2017-06-15T12:09:16.017Z,28.3
2017-06-15T12:10:15.252Z,28.3
2017-06-15T12:11:14.993Z,28.3
2017-06-15T12:12:14.497Z,27.9
2017-06-15T12:13:14.232Z,28.2
2017-06-15T12:14:13.749Z,28.1
2017-06-15T12:15:12.861Z,28.2
2017-06-15T12:16:12.488Z,28.2
2017-06-15T12:17:12.233Z,28.3
2017-06-15T12:18:11.963Z,28.4
2017-06-15T12:19:11.463Z,28.3
2017-06-15T12:20:11.200Z,28.3
2017-06-15T12:21:10.310Z,28.4
2017-06-15T12:22:09.936Z,28.6
2017-06-15T12:23:09.665Z,28.4
2017-06-15T12:24:09.424Z,28.6
2017-06-15T12:25:08.688Z,28.5
2017-06-15T12:26:08.308Z,28.5
2017-06-15T12:27:07.998Z,28.6
2017-06-15T12:28:07.729Z,28.7
2017-06-15T12:29:06.954Z,28.9
2017-06-15T12:30:06.688Z,29
2017-06-15T12:31:06.318Z,29.1
2017-06-15T12:32:05.934Z,29.2
2017-06-15T12:33:05.667Z,28.6
2017-06-15T12:34:04.902Z,28
2017-06-15T12:35:04.521Z,28.1
2017-06-15T12:36:04.262Z,28
2017-06-15T12:37:03.997Z,28.2
2017-06-15T12:38:03.107Z,28.3
2017-06-15T12:39:02.987Z,28.4
2017-06-15T12:40:02.724Z,28.3
2017-06-15T12:41:02.108Z,28.5
2017-06-15T12:42:01.789Z,28.5
2017-06-15T12:43:01.605Z,28.6
2017-06-15T12:43:31.804Z,28.6
2017-06-15T12:44:02.348Z,28.5
2017-06-15T12:45:00.575Z,28.6
2017-06-15T12:46:00.318Z,28.7
2017-06-15T12:46:59.559Z,28.7
2017-06-15T12:47:59.255Z,28.8
2017-06-15T12:48:58.990Z,28.7
2017-06-15T12:49:58.727Z,28.8
2017-06-15T12:50:58.347Z,28.9
2017-06-15T12:51:57.578Z,29
2017-06-15T12:52:57.312Z,29.1
2017-06-15T12:53:56.961Z,29.3
2017-06-15T12:54:56.699Z,29.3
2017-06-15T12:55:56.317Z,29.3
2017-06-15T12:56:55.433Z,29.2
2017-06-15T12:57:55.164Z,29.4
2017-06-15T12:58:54.905Z,29.3
2017-06-15T12:59:54.252Z,29.2
2017-06-15T13:00:53.871Z,29.3
2017-06-15T13:01:53.605Z,28.7
2017-06-15T13:02:53.223Z,28.9
2017-06-15T13:03:53.533Z,28.6
2017-06-15T13:04:52.277Z,28.7
2017-06-15T13:05:52.093Z,28.3
2017-06-15T13:06:51.831Z,28.6
2017-06-15T13:07:51.070Z,28.6
2017-06-15T13:08:50.809Z,28.7
2017-06-15T13:09:50.437Z,28.7
2017-06-15T13:10:50.171Z,28.8
2017-06-15T13:11:49.409Z,28.9
2017-06-15T13:12:49.143Z,28.8
2017-06-15T13:13:48.876Z,28.8
2017-06-15T13:14:48.607Z,28.8
2017-06-15T13:15:47.843Z,28.9
2017-06-15T13:16:47.459Z,29
2017-06-15T13:17:46.959Z,29
2017-06-15T13:18:47.082Z,29.2
2017-06-15T13:19:46.583Z,28.9
2017-06-15T13:20:46.196Z,29.1
2017-06-15T13:21:45.424Z,29.2
2017-06-15T13:22:45.159Z,29.3
2017-06-15T13:23:44.895Z,29.1
2017-06-15T13:25:44.021Z,29.3
2017-06-15T13:26:43.829Z,29.4
2017-06-15T13:27:43.061Z,29.5
2017-06-15T13:28:42.884Z,29.6
2017-06-15T13:29:42.619Z,29.5
2017-06-15T13:30:41.856Z,29.7
2017-06-15T13:31:41.596Z,29.8
2017-06-15T13:32:41.334Z,29.7
2017-06-15T13:33:41.070Z,29.7
2017-06-15T13:34:40.319Z,29.8
2017-06-15T13:35:39.943Z,30
2017-06-15T13:36:39.680Z,29.7
2017-06-15T13:37:39.366Z,29.5
2017-06-15T13:38:39.100Z,29.7
2017-06-15T13:39:38.328Z,29.7
2017-06-15T13:40:38.064Z,29.7
2017-06-15T13:41:37.798Z,29.8
2017-06-15T13:42:37.421Z,29.7
2017-06-15T13:43:36.730Z,29.4
2017-06-15T13:44:36.470Z,29.4
2017-06-15T13:46:35.596Z,29.1
2017-06-15T13:47:35.213Z,29.2